Time;durP1;ratioP1;P1;durP2;ratioP2;P2;SDS_P1;SDS_P2;PMS_P1;PMS_P2;Temp;Humidity;BMP_temperature;BMP_pressure;BME280_temperature;BME280_humidity;BME280_pressure;Samples;Min_cycle;Max_cycle;Signal;HPM_P1;HPM_P2
2022/11/02 00:00:00;;;;;;;0.4;0.4;;;;;;;14.3;100.0;101140;;;;
2022/11/02 00:01:10;;;;;;;0.4;0.4;;;;;;;14.4;100.0;101140;;;;
2022/11/02 00:02:00;;;;;;;0.4;0.4;;;;;;;14.4;100.0;101140;;;;
2022/11/02 00:03:00;;;;;;;0.4;0.4;;;;;;;14.2;100.0;101140;;;;
2022/11/02 00:04:00;;;;;;;0.4;0.4;;;;;;;14.2;100.0;101140;;;;
2022/11/02 00:05:00;;;;;;;0.4;0.4;;;;;;;14.3;100.0;101140;;;;
2022/11/02 00:06:00;;;;;;;0.4;0.4;;;;;;;14.3;100.0;101140;;;;
2022/11/02 00:07:00;;;;;;;0.5;0.5;;;;;;;14.3;100.0;101140;;;;
2022/11/02 00:08:00;;;;;;;0.5;0.5;;;;;;;14.3;100.0;101140;;;;
2022/11/02 00:09:00;;;;;;;0.5;0.5;;;;;;;14.2;100.0;101130;;;;
2022/11/02 00:10:00;;;;;;;0.5;0.5;;;;;;;14.2;100.0;101130;;;;
2022/11/02 00:11:00;;;;;;;0.5;0.5;;;;;;;14.2;100.0;101130;;;;
2022/11/02 00:12:00;;;;;;;0.5;0.5;;;;;;;14.2;100.0;101130;;;;
2022/11/02 00:13:00;;;;;;;0.5;0.5;;;;;;;14.4;100.0;101130;;;;
2022/11/02 00:14:00;;;;;;;0.5;0.5;;;;;;;14.4;100.0;101130;;;;
2022/11/02 00:15:00;;;;;;;0.5;0.5;;;;;;;14.3;100.0;101130;;;;
2022/11/02 00:16:01;;;;;;;0.5;0.5;;;;;;;14.3;100.0;101130;;;;
2022/11/02 00:17:00;;;;;;;0.5;0.5;;;;;;;14.2;100.0;101130;;;;
2022/11/02 00:18:02;;;;;;;0.5;0.5;;;;;;;14.2;100.0;101130;;;;
2022/11/02 00:19:02;;;;;;;0.5;0.5;;;;;;;14.2;100.0;101130;;;;
2022/11/02 00:20:00;;;;;;;0.5;0.5;;;;;;;14.2;100.0;101130;;;;
2022/11/02 00:21:00;;;;;;;0.5;0.5;;;;;;;14.3;100.0;101130;;;;
2022/11/02 00:22:01;;;;;;;0.5;0.5;;;;;;;14.3;100.0;101130;;;;
2022/11/02 00:23:01;;;;;;;0.5;0.5;;;;;;;14.2;100.0;101130;;;;
2022/11/02 00:24:00;;;;;;;0.5;0.5;;;;;;;14.2;100.0;101130;;;;
2022/11/02 00:25:03;;;;;;;0.5;0.5;;;;;;;14.4;100.0;101130;;;;
2022/11/02 00:26:02;;;;;;;0.5;0.5;;;;;;;14.4;100.0;101130;;;;
2022/11/02 00:27:00;;;;;;;0.7;0.7;;;;;;;14.2;100.0;101130;;;;
2022/11/02 00:28:00;;;;;;;0.7;0.7;;;;;;;14.2;100.0;101130;;;;
2022/11/02 00:29:00;;;;;;;0.7;0.7;;;;;;;14.3;100.0;101130;;;;
2022/11/02 00:30:00;;;;;;;0.7;0.7;;;;;;;14.3;100.0;101130;;;;
2022/11/02 00:31:00;;;;;;;0.7;0.7;;;;;;;14.3;100.0;101130;;;;
2022/11/02 00:32:00;;;;;;;0.7;0.7;;;;;;;14.3;100.0;101130;;;;
2022/11/02 00:33:00;;;;;;;0.7;0.7;;;;;;;14.4;100.0;101140;;;;
2022/11/02 00:34:00;;;;;;;0.7;0.7;;;;;;;14.4;100.0;101140;;;;
2022/11/02 00:35:00;;;;;;;0.7;0.7;;;;;;;14.3;100.0;101130;;;;
2022/11/02 00:36:00;;;;;;;0.7;0.7;;;;;;;14.3;100.0;101130;;;;
2022/11/02 00:37:00;;;;;;;0.7;0.7;;;;;;;14.3;100.0;101130;;;;
2022/11/02 00:38:00;;;;;;;0.7;0.7;;;;;;;14.3;100.0;101130;;;;
2022/11/02 00:39:00;;;;;;;0.7;0.7;;;;;;;14.2;100.0;101120;;;;
2022/11/02 00:40:00;;;;;;;0.7;0.7;;;;;;;14.2;100.0;101120;;;;
2022/11/02 00:41:00;;;;;;;0.7;0.7;;;;;;;14.2;100.0;101120;;;;
2022/11/02 00:42:00;;;;;;;0.7;0.7;;;;;;;14.2;100.0;101120;;;;
2022/11/02 00:43:00;;;;;;;0.7;0.7;;;;;;;14.3;100.0;101120;;;;
2022/11/02 00:44:00;;;;;;;0.7;0.7;;;;;;;14.3;100.0;101120;;;;
2022/11/02 00:45:00;;;;;;;0.7;0.7;;;;;;;14.1;100.0;101130;;;;
2022/11/02 00:46:00;;;;;;;0.7;0.7;;;;;;;14.1;100.0;101130;;;;
2022/11/02 00:47:00;;;;;;;0.4;0.4;;;;;;;14.2;100.0;101120;;;;
2022/11/02 00:48:00;;;;;;;0.4;0.4;;;;;;;14.2;100.0;101120;;;;
2022/11/02 00:49:00;;;;;;;0.4;0.4;;;;;;;14.2;100.0;101130;;;;
2022/11/02 00:50:00;;;;;;;0.4;0.4;;;;;;;14.2;100.0;101130;;;;
2022/11/02 00:51:00;;;;;;;0.4;0.4;;;;;;;14.2;100.0;101120;;;;
2022/11/02 00:52:00;;;;;;;0.4;0.4;;;;;;;14.2;100.0;101120;;;;
2022/11/02 00:53:00;;;;;;;0.4;0.4;;;;;;;14.1;100.0;101130;;;;
2022/11/02 00:54:00;;;;;;;0.4;0.4;;;;;;;14.1;100.0;101130;;;;
2022/11/02 00:55:00;;;;;;;0.4;0.4;;;;;;;14.3;100.0;101130;;;;
2022/11/02 00:56:00;;;;;;;0.4;0.4;;;;;;;14.3;100.0;101130;;;;
2022/11/02 00:57:01;;;;;;;0.4;0.4;;;;;;;14.2;100.0;101130;;;;
2022/11/02 00:58:00;;;;;;;0.4;0.4;;;;;;;14.2;100.0;101130;;;;
2022/11/02 00:59:00;;;;;;;0.4;0.4;;;;;;;14.2;100.0;101130;;;;
2022/11/02 01:00:00;;;;;;;0.4;0.4;;;;;;;14.2;100.0;101130;;;;
2022/11/02 01:01:03;;;;;;;0.4;0.4;;;;;;;14.2;100.0;101140;;;;
2022/11/02 01:02:00;;;;;;;0.4;0.4;;;;;;;14.2;100.0;101140;;;;
2022/11/02 01:03:00;;;;;;;0.4;0.4;;;;;;;14.2;100.0;101130;;;;
2022/11/02 01:04:00;;;;;;;0.4;0.4;;;;;;;14.2;100.0;101130;;;;
2022/11/02 01:05:00;;;;;;;0.4;0.4;;;;;;;14.2;100.0;101140;;;;
2022/11/02 01:06:06;;;;;;;0.4;0.4;;;;;;;14.2;100.0;101140;;;;
2022/11/02 01:07:00;;;;;;;1.1;1.1;;;;;;;14.1;100.0;101150;;;;
2022/11/02 01:08:00;;;;;;;1.1;1.1;;;;;;;14.1;100.0;101150;;;;
2022/11/02 01:09:00;;;;;;;1.1;1.1;;;;;;;14.1;100.0;101140;;;;
2022/11/02 01:10:00;;;;;;;1.1;1.1;;;;;;;14.1;100.0;101140;;;;
2022/11/02 01:11:08;;;;;;;1.1;1.1;;;;;;;14.1;100.0;101150;;;;
2022/11/02 01:12:00;;;;;;;1.1;1.1;;;;;;;14.1;100.0;101150;;;;
2022/11/02 01:13:00;;;;;;;1.1;1.1;;;;;;;14.0;100.0;101160;;;;
2022/11/02 01:14:00;;;;;;;1.1;1.1;;;;;;;14.0;100.0;101160;;;;
2022/11/02 01:15:00;;;;;;;1.1;1.1;;;;;;;14.0;100.0;101150;;;;
2022/11/02 01:16:02;;;;;;;1.1;1.1;;;;;;;14.0;100.0;101150;;;;
2022/11/02 01:17:00;;;;;;;1.1;1.1;;;;;;;13.9;100.0;101150;;;;
2022/11/02 01:18:00;;;;;;;1.1;1.1;;;;;;;13.9;100.0;101150;;;;
2022/11/02 01:19:00;;;;;;;1.1;1.1;;;;;;;13.9;100.0;101160;;;;
2022/11/02 01:20:00;;;;;;;1.1;1.1;;;;;;;13.9;100.0;101160;;;;
2022/11/02 01:21:00;;;;;;;1.1;1.1;;;;;;;14.0;100.0;101160;;;;
2022/11/02 01:22:00;;;;;;;1.1;1.1;;;;;;;14.0;100.0;101160;;;;
2022/11/02 01:23:00;;;;;;;1.1;1.1;;;;;;;13.9;100.0;101160;;;;
2022/11/02 01:24:00;;;;;;;1.1;1.1;;;;;;;13.9;100.0;101160;;;;
2022/11/02 01:25:00;;;;;;;1.1;1.1;;;;;;;13.9;100.0;101160;;;;
2022/11/02 01:26:02;;;;;;;1.1;1.1;;;;;;;13.9;100.0;101160;;;;
2022/11/02 01:27:00;;;;;;;3.1;2.3;;;;;;;13.8;100.0;101170;;;;
2022/11/02 01:28:00;;;;;;;3.1;2.3;;;;;;;13.8;100.0;101170;;;;
2022/11/02 01:29:00;;;;;;;3.1;2.3;;;;;;;13.8;100.0;101160;;;;
2022/11/02 01:30:00;;;;;;;3.1;2.3;;;;;;;13.8;100.0;101160;;;;
2022/11/02 01:31:00;;;;;;;3.1;2.3;;;;;;;13.7;100.0;101160;;;;
2022/11/02 01:32:00;;;;;;;3.1;2.3;;;;;;;13.7;100.0;101160;;;;
2022/11/02 01:33:00;;;;;;;3.1;2.3;;;;;;;13.8;100.0;101160;;;;
2022/11/02 01:34:00;;;;;;;3.1;2.3;;;;;;;13.8;100.0;101160;;;;
2022/11/02 01:35:01;;;;;;;3.1;2.3;;;;;;;13.8;100.0;101160;;;;
2022/11/02 01:36:02;;;;;;;3.1;2.3;;;;;;;13.8;100.0;101160;;;;
2022/11/02 01:37:00;;;;;;;3.1;2.3;;;;;;;13.7;100.0;101160;;;;
2022/11/02 01:38:00;;;;;;;3.1;2.3;;;;;;;13.7;100.0;101160;;;;
2022/11/02 01:39:00;;;;;;;3.1;2.3;;;;;;;13.8;100.0;101160;;;;
2022/11/02 01:40:00;;;;;;;3.1;2.3;;;;;;;13.8;100.0;101160;;;;
2022/11/02 01:41:00;;;;;;;3.1;2.3;;;;;;;13.7;100.0;101160;;;;
2022/11/02 01:42:00;;;;;;;3.1;2.3;;;;;;;13.7;100.0;101160;;;;
2022/11/02 01:43:00;;;;;;;3.1;2.3;;;;;;;13.6;100.0;101170;;;;
2022/11/02 01:44:02;;;;;;;3.1;2.3;;;;;;;13.6;100.0;101170;;;;
2022/11/02 01:45:00;;;;;;;3.1;2.3;;;;;;;13.6;100.0;101170;;;;
2022/11/02 01:46:05;;;;;;;3.1;2.3;;;;;;;13.6;100.0;101170;;;;
2022/11/02 01:47:06;;;;;;;0.5;0.5;;;;;;;13.6;100.0;101170;;;;
2022/11/02 01:48:00;;;;;;;0.5;0.5;;;;;;;13.6;100.0;101170;;;;
2022/11/02 01:49:03;;;;;;;0.5;0.5;;;;;;;13.5;100.0;101170;;;;
2022/11/02 01:50:03;;;;;;;0.5;0.5;;;;;;;13.5;100.0;101170;;;;
2022/11/02 01:51:03;;;;;;;0.5;0.5;;;;;;;13.5;100.0;101180;;;;
2022/11/02 01:52:03;;;;;;;0.5;0.5;;;;;;;13.5;100.0;101180;;;;
2022/11/02 01:53:00;;;;;;;0.5;0.5;;;;;;;13.4;100.0;101190;;;;
2022/11/02 01:54:03;;;;;;;0.5;0.5;;;;;;;13.4;100.0;101190;;;;
2022/11/02 01:55:03;;;;;;;0.5;0.5;;;;;;;13.5;100.0;101190;;;;
2022/11/02 01:56:00;;;;;;;0.5;0.5;;;;;;;13.5;100.0;101190;;;;
2022/11/02 01:57:03;;;;;;;0.5;0.5;;;;;;;13.6;100.0;101190;;;;
2022/11/02 01:58:04;;;;;;;0.5;0.5;;;;;;;13.6;100.0;101190;;;;
2022/11/02 01:59:01;;;;;;;0.5;0.5;;;;;;;13.6;100.0;101190;;;;
2022/11/02 02:00:04;;;;;;;0.5;0.5;;;;;;;13.6;100.0;101190;;;;
2022/11/02 02:01:00;;;;;;;0.5;0.5;;;;;;;13.6;100.0;101190;;;;
2022/11/02 02:02:01;;;;;;;0.5;0.5;;;;;;;13.6;100.0;101190;;;;
2022/11/02 02:03:04;;;;;;;0.5;0.5;;;;;;;13.5;100.0;101190;;;;
2022/11/02 02:04:01;;;;;;;0.5;0.5;;;;;;;13.5;100.0;101190;;;;
2022/11/02 02:05:03;;;;;;;0.5;0.5;;;;;;;13.6;100.0;101180;;;;
2022/11/02 02:06:04;;;;;;;0.5;0.5;;;;;;;13.6;100.0;101180;;;;
2022/11/02 02:07:00;;;;;;;0.6;0.6;;;;;;;13.6;100.0;101190;;;;
2022/11/02 02:08:02;;;;;;;0.6;0.6;;;;;;;13.6;100.0;101190;;;;
2022/11/02 02:09:03;;;;;;;0.6;0.6;;;;;;;13.6;100.0;101180;;;;
2022/11/02 02:10:00;;;;;;;0.6;0.6;;;;;;;13.6;100.0;101180;;;;
2022/11/02 02:11:00;;;;;;;0.6;0.6;;;;;;;13.6;100.0;101190;;;;
2022/11/02 02:12:00;;;;;;;0.6;0.6;;;;;;;13.6;100.0;101190;;;;
2022/11/02 02:13:00;;;;;;;0.6;0.6;;;;;;;13.4;100.0;101200;;;;
2022/11/02 02:14:10;;;;;;;0.6;0.6;;;;;;;13.4;100.0;101200;;;;
2022/11/02 02:15:00;;;;;;;0.6;0.6;;;;;;;13.5;100.0;101200;;;;
2022/11/02 02:16:10;;;;;;;0.6;0.6;;;;;;;13.5;100.0;101200;;;;
2022/11/02 02:17:10;;;;;;;0.6;0.6;;;;;;;13.6;100.0;101190;;;;
2022/11/02 02:18:06;;;;;;;0.6;0.6;;;;;;;13.6;100.0;101190;;;;
2022/11/02 02:19:04;;;;;;;0.6;0.6;;;;;;;13.5;100.0;101190;;;;
2022/11/02 02:20:00;;;;;;;0.6;0.6;;;;;;;13.5;100.0;101190;;;;
2022/11/02 02:21:10;;;;;;;0.6;0.6;;;;;;;13.5;100.0;101200;;;;
2022/11/02 02:22:10;;;;;;;0.6;0.6;;;;;;;13.5;100.0;101200;;;;
2022/11/02 02:23:10;;;;;;;0.6;0.6;;;;;;;13.5;100.0;101190;;;;
2022/11/02 02:24:10;;;;;;;0.6;0.6;;;;;;;13.5;100.0;101190;;;;
2022/11/02 02:25:00;;;;;;;0.6;0.6;;;;;;;13.5;100.0;101190;;;;
2022/11/02 02:26:03;;;;;;;0.6;0.6;;;;;;;13.5;100.0;101190;;;;
2022/11/02 02:27:04;;;;;;;0.5;0.5;;;;;;;13.5;100.0;101180;;;;
2022/11/02 02:28:01;;;;;;;0.5;0.5;;;;;;;13.5;100.0;101180;;;;
2022/11/02 02:29:01;;;;;;;0.5;0.5;;;;;;;13.5;100.0;101190;;;;
2022/11/02 02:30:00;;;;;;;0.5;0.5;;;;;;;13.5;100.0;101190;;;;
2022/11/02 02:31:10;;;;;;;0.5;0.5;;;;;;;13.5;100.0;101180;;;;
2022/11/02 02:32:04;;;;;;;0.5;0.5;;;;;;;13.5;100.0;101180;;;;
2022/11/02 02:33:04;;;;;;;0.5;0.5;;;;;;;13.5;100.0;101190;;;;
2022/11/02 02:34:06;;;;;;;0.5;0.5;;;;;;;13.5;100.0;101190;;;;
2022/11/02 02:35:08;;;;;;;0.5;0.5;;;;;;;13.4;100.0;101190;;;;
2022/11/02 02:36:09;;;;;;;0.5;0.5;;;;;;;13.4;100.0;101190;;;;
2022/11/02 02:37:05;;;;;;;0.5;0.5;;;;;;;13.6;100.0;101190;;;;
2022/11/02 02:38:02;;;;;;;0.5;0.5;;;;;;;13.6;100.0;101190;;;;
2022/11/02 02:39:04;;;;;;;0.5;0.5;;;;;;;13.5;100.0;101200;;;;
2022/11/02 02:40:03;;;;;;;0.5;0.5;;;;;;;13.5;100.0;101200;;;;
2022/11/02 02:41:09;;;;;;;0.5;0.5;;;;;;;13.3;100.0;101190;;;;
2022/11/02 02:42:05;;;;;;;0.5;0.5;;;;;;;13.3;100.0;101190;;;;
2022/11/02 02:43:05;;;;;;;0.5;0.5;;;;;;;13.4;100.0;101190;;;;
2022/11/02 02:44:02;;;;;;;0.5;0.5;;;;;;;13.4;100.0;101190;;;;
2022/11/02 02:45:07;;;;;;;0.5;0.5;;;;;;;13.3;100.0;101190;;;;
2022/11/02 02:46:04;;;;;;;0.5;0.5;;;;;;;13.3;100.0;101190;;;;
2022/11/02 02:47:03;;;;;;;0.6;0.6;;;;;;;13.4;100.0;101190;;;;
2022/11/02 02:48:03;;;;;;;0.6;0.6;;;;;;;13.4;100.0;101190;;;;
2022/11/02 02:49:01;;;;;;;0.6;0.6;;;;;;;13.3;100.0;101200;;;;
2022/11/02 02:50:04;;;;;;;0.6;0.6;;;;;;;13.3;100.0;101200;;;;
2022/11/02 02:51:04;;;;;;;0.6;0.6;;;;;;;13.2;100.0;101200;;;;
2022/11/02 02:52:00;;;;;;;0.6;0.6;;;;;;;13.2;100.0;101200;;;;
2022/11/02 02:53:01;;;;;;;0.6;0.6;;;;;;;13.2;100.0;101200;;;;
2022/11/02 02:54:03;;;;;;;0.6;0.6;;;;;;;13.2;100.0;101200;;;;
2022/11/02 02:55:02;;;;;;;0.6;0.6;;;;;;;13.2;100.0;101200;;;;
2022/11/02 02:56:01;;;;;;;0.6;0.6;;;;;;;13.2;100.0;101200;;;;
2022/11/02 02:57:05;;;;;;;0.6;0.6;;;;;;;13.2;100.0;101190;;;;
2022/11/02 02:58:01;;;;;;;0.6;0.6;;;;;;;13.2;100.0;101190;;;;
2022/11/02 02:59:04;;;;;;;0.6;0.6;;;;;;;13.1;100.0;101210;;;;
2022/11/02 03:00:00;;;;;;;0.6;0.6;;;;;;;13.1;100.0;101210;;;;
2022/11/02 03:01:00;;;;;;;0.6;0.6;;;;;;;13.2;100.0;101210;;;;
2022/11/02 03:02:04;;;;;;;0.6;0.6;;;;;;;13.2;100.0;101210;;;;
2022/11/02 03:03:02;;;;;;;0.6;0.6;;;;;;;13.1;100.0;101210;;;;
2022/11/02 03:04:00;;;;;;;0.6;0.6;;;;;;;13.1;100.0;101210;;;;
2022/11/02 03:05:00;;;;;;;0.6;0.6;;;;;;;13.1;100.0;101210;;;;
2022/11/02 03:06:04;;;;;;;0.6;0.6;;;;;;;13.1;100.0;101210;;;;
2022/11/02 03:07:00;;;;;;;0.6;0.6;;;;;;;12.9;100.0;101220;;;;
2022/11/02 03:08:04;;;;;;;0.6;0.6;;;;;;;12.9;100.0;101220;;;;
2022/11/02 03:09:00;;;;;;;0.6;0.6;;;;;;;12.9;100.0;101210;;;;
2022/11/02 03:10:01;;;;;;;0.6;0.6;;;;;;;12.9;100.0;101210;;;;
2022/11/02 03:11:04;;;;;;;0.6;0.6;;;;;;;12.8;100.0;101210;;;;
2022/11/02 03:12:03;;;;;;;0.6;0.6;;;;;;;12.8;100.0;101210;;;;
2022/11/02 03:13:09;;;;;;;0.6;0.6;;;;;;;12.8;100.0;101210;;;;
2022/11/02 03:14:10;;;;;;;0.6;0.6;;;;;;;12.8;100.0;101210;;;;
2022/11/02 03:15:03;;;;;;;0.6;0.6;;;;;;;12.7;100.0;101200;;;;
2022/11/02 03:16:02;;;;;;;0.6;0.6;;;;;;;12.7;100.0;101200;;;;
2022/11/02 03:17:10;;;;;;;0.6;0.6;;;;;;;12.8;100.0;101210;;;;
2022/11/02 03:18:00;;;;;;;0.6;0.6;;;;;;;12.8;100.0;101210;;;;
2022/11/02 03:19:00;;;;;;;0.6;0.6;;;;;;;12.9;100.0;101210;;;;
2022/11/02 03:20:07;;;;;;;0.6;0.6;;;;;;;12.9;100.0;101210;;;;
2022/11/02 03:21:10;;;;;;;0.6;0.6;;;;;;;12.9;100.0;101210;;;;
2022/11/02 03:22:05;;;;;;;0.6;0.6;;;;;;;12.9;100.0;101210;;;;
2022/11/02 03:23:07;;;;;;;0.6;0.6;;;;;;;12.8;100.0;101210;;;;
2022/11/02 03:24:08;;;;;;;0.6;0.6;;;;;;;12.8;100.0;101210;;;;
2022/11/02 03:25:07;;;;;;;0.6;0.6;;;;;;;12.8;100.0;101210;;;;
2022/11/02 03:26:02;;;;;;;0.6;0.6;;;;;;;12.8;100.0;101210;;;;
2022/11/02 03:27:00;;;;;;;0.7;0.7;;;;;;;12.8;100.0;101220;;;;
2022/11/02 03:28:10;;;;;;;0.7;0.7;;;;;;;12.8;100.0;101220;;;;
2022/11/02 03:29:00;;;;;;;0.7;0.7;;;;;;;12.9;100.0;101210;;;;
2022/11/02 03:30:04;;;;;;;0.7;0.7;;;;;;;12.9;100.0;101210;;;;
2022/11/02 03:31:05;;;;;;;0.7;0.7;;;;;;;12.7;100.0;101220;;;;
2022/11/02 03:32:06;;;;;;;0.7;0.7;;;;;;;12.7;100.0;101220;;;;
2022/11/02 03:33:00;;;;;;;0.7;0.7;;;;;;;12.7;100.0;101220;;;;
2022/11/02 03:34:00;;;;;;;0.7;0.7;;;;;;;12.7;100.0;101220;;;;
2022/11/02 03:35:03;;;;;;;0.7;0.7;;;;;;;12.7;100.0;101230;;;;
2022/11/02 03:36:08;;;;;;;0.7;0.7;;;;;;;12.7;100.0;101230;;;;
2022/11/02 03:37:10;;;;;;;0.7;0.7;;;;;;;12.8;100.0;101230;;;;
2022/11/02 03:38:02;;;;;;;0.7;0.7;;;;;;;12.8;100.0;101230;;;;
2022/11/02 03:39:05;;;;;;;0.7;0.7;;;;;;;12.7;100.0;101230;;;;
2022/11/02 03:40:10;;;;;;;0.7;0.7;;;;;;;12.7;100.0;101230;;;;
2022/11/02 03:41:00;;;;;;;0.7;0.7;;;;;;;12.8;100.0;101230;;;;
2022/11/02 03:42:02;;;;;;;0.7;0.7;;;;;;;12.8;100.0;101230;;;;
2022/11/02 03:43:02;;;;;;;0.7;0.7;;;;;;;12.7;100.0;101240;;;;
2022/11/02 03:44:06;;;;;;;0.7;0.7;;;;;;;12.7;100.0;101240;;;;
2022/11/02 03:45:03;;;;;;;0.7;0.7;;;;;;;12.8;100.0;101230;;;;
2022/11/02 03:46:01;;;;;;;0.7;0.7;;;;;;;12.8;100.0;101230;;;;
2022/11/02 03:47:01;;;;;;;0.5;0.5;;;;;;;12.7;100.0;101230;;;;
2022/11/02 03:48:03;;;;;;;0.5;0.5;;;;;;;12.7;100.0;101230;;;;
2022/11/02 03:49:08;;;;;;;0.5;0.5;;;;;;;12.6;100.0;101230;;;;
2022/11/02 03:50:01;;;;;;;0.5;0.5;;;;;;;12.6;100.0;101230;;;;
2022/11/02 03:51:01;;;;;;;0.5;0.5;;;;;;;12.5;100.0;101240;;;;
2022/11/02 03:52:04;;;;;;;0.5;0.5;;;;;;;12.5;100.0;101240;;;;
2022/11/02 03:53:03;;;;;;;0.5;0.5;;;;;;;12.6;100.0;101240;;;;
2022/11/02 03:54:10;;;;;;;0.5;0.5;;;;;;;12.6;100.0;101240;;;;
2022/11/02 03:55:03;;;;;;;0.5;0.5;;;;;;;12.6;100.0;101250;;;;
2022/11/02 03:56:04;;;;;;;0.5;0.5;;;;;;;12.6;100.0;101250;;;;
2022/11/02 03:57:03;;;;;;;0.5;0.5;;;;;;;12.7;100.0;101230;;;;
2022/11/02 03:58:00;;;;;;;0.5;0.5;;;;;;;12.7;100.0;101230;;;;
2022/11/02 03:59:00;;;;;;;0.5;0.5;;;;;;;12.7;100.0;101240;;;;
2022/11/02 04:00:08;;;;;;;0.5;0.5;;;;;;;12.7;100.0;101240;;;;
2022/11/02 04:01:02;;;;;;;0.5;0.5;;;;;;;12.7;100.0;101250;;;;
2022/11/02 04:02:01;;;;;;;0.5;0.5;;;;;;;12.7;100.0;101250;;;;
2022/11/02 04:03:03;;;;;;;0.5;0.5;;;;;;;12.8;100.0;101250;;;;
2022/11/02 04:04:02;;;;;;;0.5;0.5;;;;;;;12.8;100.0;101250;;;;
2022/11/02 04:05:00;;;;;;;0.5;0.5;;;;;;;12.7;100.0;101240;;;;
2022/11/02 04:06:00;;;;;;;0.5;0.5;;;;;;;12.7;100.0;101240;;;;
2022/11/02 04:07:00;;;;;;;0.7;0.7;;;;;;;12.5;100.0;101250;;;;
2022/11/02 04:09:00;;;;;;;0.7;0.7;;;;;;;12.6;100.0;101260;;;;
2022/11/02 04:10:00;;;;;;;0.7;0.7;;;;;;;12.6;100.0;101260;;;;
2022/11/02 04:15:00;;;;;;;0.7;0.7;;;;;;;12.6;100.0;101260;;;;
2022/11/02 04:16:00;;;;;;;0.7;0.7;;;;;;;12.6;100.0;101260;;;;
2022/11/02 04:20:00;;;;;;;0.7;0.7;;;;;;;12.6;100.0;101270;;;;
2022/11/02 04:21:00;;;;;;;0.7;0.7;;;;;;;12.6;100.0;101270;;;;
2022/11/02 04:26:00;;;;;;;0.7;0.7;;;;;;;12.5;100.0;101280;;;;
2022/11/02 04:27:00;;;;;;;0.5;0.5;;;;;;;12.6;100.0;101280;;;;
2022/11/02 04:28:06;;;;;;;0.5;0.5;;;;;;;12.6;100.0;101280;;;;
2022/11/02 04:29:00;;;;;;;0.5;0.5;;;;;;;12.6;100.0;101280;;;;
2022/11/02 04:30:00;;;;;;;0.5;0.5;;;;;;;12.6;100.0;101280;;;;
2022/11/02 04:31:00;;;;;;;0.5;0.5;;;;;;;12.5;100.0;101290;;;;
2022/11/02 04:32:00;;;;;;;0.5;0.5;;;;;;;12.5;100.0;101290;;;;
2022/11/02 04:34:00;;;;;;;0.5;0.5;;;;;;;12.5;100.0;101300;;;;
2022/11/02 04:35:00;;;;;;;0.5;0.5;;;;;;;12.5;100.0;101290;;;;
2022/11/02 04:36:01;;;;;;;0.5;0.5;;;;;;;12.5;100.0;101290;;;;
2022/11/02 04:37:00;;;;;;;0.5;0.5;;;;;;;12.4;100.0;101300;;;;
2022/11/02 04:39:00;;;;;;;0.5;0.5;;;;;;;12.6;100.0;101290;;;;
2022/11/02 04:40:00;;;;;;;0.5;0.5;;;;;;;12.6;100.0;101290;;;;
2022/11/02 04:42:00;;;;;;;0.5;0.5;;;;;;;12.6;100.0;101300;;;;
2022/11/02 04:43:00;;;;;;;0.5;0.5;;;;;;;12.7;100.0;101300;;;;
2022/11/02 04:44:00;;;;;;;0.5;0.5;;;;;;;12.7;100.0;101300;;;;
2022/11/02 04:45:00;;;;;;;0.5;0.5;;;;;;;12.7;100.0;101310;;;;
2022/11/02 04:46:00;;;;;;;0.5;0.5;;;;;;;12.7;100.0;101310;;;;
2022/11/02 04:47:00;;;;;;;0.6;0.6;;;;;;;12.6;100.0;101310;;;;
2022/11/02 04:48:01;;;;;;;0.6;0.6;;;;;;;12.6;100.0;101310;;;;
2022/11/02 04:49:00;;;;;;;0.6;0.6;;;;;;;12.7;100.0;101310;;;;
2022/11/02 04:50:00;;;;;;;0.6;0.6;;;;;;;12.7;100.0;101310;;;;
2022/11/02 04:51:00;;;;;;;0.6;0.6;;;;;;;12.6;100.0;101320;;;;
2022/11/02 04:52:00;;;;;;;0.6;0.6;;;;;;;12.6;100.0;101320;;;;
2022/11/02 04:53:01;;;;;;;0.6;0.6;;;;;;;12.6;100.0;101320;;;;
2022/11/02 04:54:00;;;;;;;0.6;0.6;;;;;;;12.6;100.0;101320;;;;
2022/11/02 04:55:00;;;;;;;0.6;0.6;;;;;;;12.7;100.0;101320;;;;
2022/11/02 04:56:00;;;;;;;0.6;0.6;;;;;;;12.7;100.0;101320;;;;
2022/11/02 04:57:00;;;;;;;0.6;0.6;;;;;;;12.6;100.0;101330;;;;
2022/11/02 04:58:00;;;;;;;0.6;0.6;;;;;;;12.6;100.0;101330;;;;
2022/11/02 04:59:00;;;;;;;0.6;0.6;;;;;;;12.6;100.0;101330;;;;
2022/11/02 05:00:00;;;;;;;0.6;0.6;;;;;;;12.6;100.0;101330;;;;
2022/11/02 05:01:04;;;;;;;0.6;0.6;;;;;;;12.6;100.0;101330;;;;
2022/11/02 05:02:00;;;;;;;0.6;0.6;;;;;;;12.6;100.0;101330;;;;
2022/11/02 05:03:00;;;;;;;0.6;0.6;;;;;;;12.6;100.0;101340;;;;
2022/11/02 05:04:00;;;;;;;0.6;0.6;;;;;;;12.6;100.0;101340;;;;
2022/11/02 05:05:00;;;;;;;0.6;0.6;;;;;;;12.5;100.0;101350;;;;
2022/11/02 05:06:00;;;;;;;0.6;0.6;;;;;;;12.5;100.0;101350;;;;
2022/11/02 05:07:05;;;;;;;0.7;0.7;;;;;;;12.5;100.0;101340;;;;
2022/11/02 05:08:00;;;;;;;0.7;0.7;;;;;;;12.5;100.0;101340;;;;
2022/11/02 05:09:00;;;;;;;0.7;0.7;;;;;;;12.6;100.0;101350;;;;
2022/11/02 05:10:00;;;;;;;0.7;0.7;;;;;;;12.6;100.0;101350;;;;
2022/11/02 05:11:00;;;;;;;0.7;0.7;;;;;;;12.5;100.0;101350;;;;
2022/11/02 05:12:00;;;;;;;0.7;0.7;;;;;;;12.5;100.0;101350;;;;
2022/11/02 05:13:00;;;;;;;0.7;0.7;;;;;;;12.4;100.0;101340;;;;
2022/11/02 05:14:00;;;;;;;0.7;0.7;;;;;;;12.4;100.0;101340;;;;
2022/11/02 05:15:00;;;;;;;0.7;0.7;;;;;;;12.4;100.0;101350;;;;
2022/11/02 05:16:00;;;;;;;0.7;0.7;;;;;;;12.4;100.0;101350;;;;
2022/11/02 05:17:00;;;;;;;0.7;0.7;;;;;;;12.4;100.0;101350;;;;
2022/11/02 05:18:00;;;;;;;0.7;0.7;;;;;;;12.4;100.0;101350;;;;
2022/11/02 05:19:00;;;;;;;0.7;0.7;;;;;;;12.4;100.0;101350;;;;
2022/11/02 05:20:00;;;;;;;0.7;0.7;;;;;;;12.4;100.0;101350;;;;
2022/11/02 05:21:00;;;;;;;0.7;0.7;;;;;;;12.6;100.0;101360;;;;
2022/11/02 05:22:00;;;;;;;0.7;0.7;;;;;;;12.6;100.0;101360;;;;
2022/11/02 05:23:00;;;;;;;0.7;0.7;;;;;;;12.6;100.0;101360;;;;
2022/11/02 05:24:00;;;;;;;0.7;0.7;;;;;;;12.6;100.0;101360;;;;
2022/11/02 05:25:00;;;;;;;0.7;0.7;;;;;;;12.6;100.0;101370;;;;
2022/11/02 05:26:01;;;;;;;0.6;0.6;;;;;;;12.6;100.0;101370;;;;
2022/11/02 05:27:00;;;;;;;0.6;0.6;;;;;;;12.6;100.0;101370;;;;
2022/11/02 05:28:00;;;;;;;0.6;0.6;;;;;;;12.6;100.0;101370;;;;
2022/11/02 05:29:00;;;;;;;0.6;0.6;;;;;;;12.7;100.0;101370;;;;
2022/11/02 05:30:00;;;;;;;0.6;0.6;;;;;;;12.7;100.0;101370;;;;
2022/11/02 05:31:00;;;;;;;0.6;0.6;;;;;;;12.7;100.0;101380;;;;
2022/11/02 05:32:00;;;;;;;0.6;0.6;;;;;;;12.7;100.0;101380;;;;
2022/11/02 05:33:01;;;;;;;0.6;0.6;;;;;;;12.6;100.0;101380;;;;
2022/11/02 05:34:00;;;;;;;0.6;0.6;;;;;;;12.6;100.0;101380;;;;
2022/11/02 05:35:00;;;;;;;0.6;0.6;;;;;;;12.5;100.0;101380;;;;
2022/11/02 05:36:00;;;;;;;0.6;0.6;;;;;;;12.5;100.0;101380;;;;
2022/11/02 05:37:00;;;;;;;0.6;0.6;;;;;;;12.6;100.0;101390;;;;
2022/11/02 05:38:00;;;;;;;0.6;0.6;;;;;;;12.6;100.0;101390;;;;
2022/11/02 05:39:00;;;;;;;0.6;0.6;;;;;;;12.6;100.0;101390;;;;
2022/11/02 05:40:00;;;;;;;0.6;0.6;;;;;;;12.6;100.0;101390;;;;
2022/11/02 05:41:00;;;;;;;0.6;0.6;;;;;;;12.6;100.0;101390;;;;
2022/11/02 05:42:00;;;;;;;0.6;0.6;;;;;;;12.6;100.0;101390;;;;
2022/11/02 05:43:00;;;;;;;0.6;0.6;;;;;;;12.5;100.0;101400;;;;
2022/11/02 05:44:00;;;;;;;0.6;0.6;;;;;;;12.5;100.0;101400;;;;
2022/11/02 05:45:00;;;;;;;0.6;0.6;;;;;;;12.6;100.0;101410;;;;
2022/11/02 05:46:00;;;;;;;1.3;1.3;;;;;;;12.6;100.0;101410;;;;
2022/11/02 05:47:00;;;;;;;1.3;1.3;;;;;;;12.6;100.0;101400;;;;
2022/11/02 05:48:00;;;;;;;1.3;1.3;;;;;;;12.6;100.0;101400;;;;
2022/11/02 05:49:00;;;;;;;1.3;1.3;;;;;;;12.6;100.0;101400;;;;
2022/11/02 05:50:01;;;;;;;1.3;1.3;;;;;;;12.6;100.0;101400;;;;
2022/11/02 05:51:01;;;;;;;1.3;1.3;;;;;;;12.6;100.0;101410;;;;
2022/11/02 05:52:00;;;;;;;1.3;1.3;;;;;;;12.6;100.0;101410;;;;
2022/11/02 05:53:00;;;;;;;1.3;1.3;;;;;;;12.6;100.0;101410;;;;
2022/11/02 05:54:00;;;;;;;1.3;1.3;;;;;;;12.6;100.0;101410;;;;
2022/11/02 05:55:00;;;;;;;1.3;1.3;;;;;;;12.5;100.0;101420;;;;
2022/11/02 05:56:00;;;;;;;1.3;1.3;;;;;;;12.5;100.0;101420;;;;
2022/11/02 05:57:00;;;;;;;1.3;1.3;;;;;;;12.5;100.0;101420;;;;
2022/11/02 05:58:00;;;;;;;1.3;1.3;;;;;;;12.5;100.0;101420;;;;
2022/11/02 05:59:00;;;;;;;1.3;1.3;;;;;;;12.5;100.0;101420;;;;
2022/11/02 06:00:00;;;;;;;1.3;1.3;;;;;;;12.5;100.0;101420;;;;
2022/11/02 06:01:01;;;;;;;1.3;1.3;;;;;;;12.5;100.0;101430;;;;
2022/11/02 06:02:00;;;;;;;1.3;1.3;;;;;;;12.5;100.0;101430;;;;
2022/11/02 06:03:00;;;;;;;1.3;1.3;;;;;;;12.4;100.0;101420;;;;
2022/11/02 06:04:00;;;;;;;1.3;1.3;;;;;;;12.4;100.0;101420;;;;
2022/11/02 06:05:00;;;;;;;1.3;1.3;;;;;;;12.4;100.0;101430;;;;
2022/11/02 06:06:02;;;;;;;0.6;0.6;;;;;;;12.4;100.0;101430;;;;
2022/11/02 06:07:00;;;;;;;0.6;0.6;;;;;;;12.4;100.0;101430;;;;
2022/11/02 06:08:00;;;;;;;0.6;0.6;;;;;;;12.4;100.0;101430;;;;
2022/11/02 06:09:07;;;;;;;0.6;0.6;;;;;;;12.3;100.0;101450;;;;
2022/11/02 06:10:01;;;;;;;0.6;0.6;;;;;;;12.3;100.0;101450;;;;
2022/11/02 06:11:04;;;;;;;0.6;0.6;;;;;;;12.3;100.0;101450;;;;
2022/11/02 06:12:00;;;;;;;0.6;0.6;;;;;;;12.3;100.0;101450;;;;
2022/11/02 06:13:01;;;;;;;0.6;0.6;;;;;;;12.3;100.0;101450;;;;
2022/11/02 06:14:02;;;;;;;0.6;0.6;;;;;;;12.3;100.0;101450;;;;
2022/11/02 06:15:00;;;;;;;0.6;0.6;;;;;;;12.2;100.0;101460;;;;
2022/11/02 06:16:01;;;;;;;0.6;0.6;;;;;;;12.2;100.0;101460;;;;
2022/11/02 06:17:00;;;;;;;0.6;0.6;;;;;;;12.2;100.0;101460;;;;
2022/11/02 06:18:00;;;;;;;0.6;0.6;;;;;;;12.2;100.0;101460;;;;
2022/11/02 06:19:00;;;;;;;0.6;0.6;;;;;;;12.2;100.0;101470;;;;
2022/11/02 06:20:00;;;;;;;0.6;0.6;;;;;;;12.2;100.0;101470;;;;
2022/11/02 06:21:00;;;;;;;0.6;0.6;;;;;;;12.2;100.0;101470;;;;
2022/11/02 06:22:00;;;;;;;0.6;0.6;;;;;;;12.2;100.0;101470;;;;
2022/11/02 06:23:00;;;;;;;0.6;0.6;;;;;;;12.1;100.0;101470;;;;
2022/11/02 06:24:00;;;;;;;0.6;0.6;;;;;;;12.1;100.0;101470;;;;
2022/11/02 06:25:00;;;;;;;0.6;0.6;;;;;;;12.1;100.0;101480;;;;
2022/11/02 06:26:00;;;;;;;0.7;0.7;;;;;;;12.1;100.0;101480;;;;
2022/11/02 06:27:00;;;;;;;0.7;0.7;;;;;;;12.1;100.0;101490;;;;
2022/11/02 06:28:00;;;;;;;0.7;0.7;;;;;;;12.1;100.0;101490;;;;
2022/11/02 06:29:00;;;;;;;0.7;0.7;;;;;;;12.0;100.0;101480;;;;
2022/11/02 06:30:00;;;;;;;0.7;0.7;;;;;;;12.0;100.0;101480;;;;
2022/11/02 06:31:00;;;;;;;0.7;0.7;;;;;;;12.1;100.0;101490;;;;
2022/11/02 06:32:00;;;;;;;0.7;0.7;;;;;;;12.1;100.0;101490;;;;
2022/11/02 06:33:06;;;;;;;0.7;0.7;;;;;;;12.1;100.0;101490;;;;
2022/11/02 06:34:00;;;;;;;0.7;0.7;;;;;;;12.1;100.0;101490;;;;
2022/11/02 06:35:00;;;;;;;0.7;0.7;;;;;;;12.1;100.0;101500;;;;
2022/11/02 06:36:00;;;;;;;0.7;0.7;;;;;;;12.1;100.0;101500;;;;
2022/11/02 06:37:00;;;;;;;0.7;0.7;;;;;;;12.0;100.0;101510;;;;